createdAt,value
2022-10-05T04:18:27.519Z,9.00
2022-10-05T04:25:39.659Z,8.90
2022-10-05T04:28:54.198Z,9.50
2022-10-05T04:32:15.805Z,9.20
2022-10-05T04:35:50.321Z,8.52
2022-10-05T04:42:51.415Z,7.60
2022-10-05T04:46:19.442Z,8.23
2022-10-05T05:04:42.482Z,7.57
2022-10-05T05:08:12.800Z,7.85
2022-10-05T05:11:47.856Z,8.10
2022-10-05T05:15:18.262Z,7.95
2022-10-05T05:18:45.993Z,8.37
2022-10-05T05:22:15.556Z,8.27
2022-10-05T05:25:36.875Z,7.82
2022-10-05T05:29:02.057Z,7.97
2022-10-05T05:32:35.779Z,8.88
2022-10-05T05:36:23.404Z,8.57
2022-10-05T05:40:00.662Z,9.30
2022-10-05T05:43:35.214Z,9.02
2022-10-05T06:02:18.958Z,9.50
2022-10-05T06:05:38.267Z,9.15
2022-10-05T06:08:53.616Z,8.55
2022-10-05T06:12:05.988Z,9.18
2022-10-05T06:15:24.527Z,9.50
2022-10-05T06:18:31.467Z,9.18
2022-10-05T06:22:04.035Z,9.00
2022-10-05T06:25:12.969Z,9.35
2022-10-05T06:28:17.020Z,8.55
2022-10-05T06:39:22.940Z,8.45
2022-10-05T06:42:29.975Z,8.73
2022-10-05T06:45:59.259Z,9.52
2022-10-05T06:49:31.077Z,9.80
2022-10-05T06:52:55.419Z,9.43
2022-10-05T06:59:16.435Z,8.63
2022-10-05T07:02:48.081Z,7.95
2022-10-05T07:09:19.740Z,8.15
2022-10-05T07:12:56.916Z,8.60
2022-10-05T07:16:12.104Z,7.97
2022-10-05T07:19:41.163Z,7.90
2022-10-05T07:22:55.487Z,8.00
2022-10-05T07:26:31.053Z,8.25
2022-10-05T07:29:48.111Z,7.68
2022-10-05T07:37:03.010Z,6.43
2022-10-05T07:47:48.120Z,6.12
2022-10-05T07:51:11.168Z,6.28
2022-10-05T08:01:29.623Z,6.82
2022-10-05T08:04:51.390Z,7.07
2022-10-05T08:08:05.252Z,7.12
2022-10-05T08:11:19.690Z,7.80
2022-10-05T08:14:51.447Z,8.23
2022-10-05T08:18:05.558Z,7.47
2022-10-05T08:21:12.098Z,7.85
2022-10-05T08:24:51.644Z,8.85
2022-10-05T08:28:08.513Z,8.93
2022-10-05T08:31:20.765Z,8.60
2022-10-05T08:34:29.719Z,9.18
2022-10-05T08:37:37.589Z,9.30
2022-10-05T08:40:56.281Z,9.60
2022-10-05T08:44:17.218Z,10.32
2022-10-05T08:47:42.843Z,10.05
2022-10-05T08:51:21.228Z,10.05
2022-10-05T08:54:29.672Z,10.25
2022-10-05T08:57:56.521Z,10.05
2022-10-05T09:01:18.621Z,11.02
2022-10-05T09:04:30.789Z,9.55
2022-10-05T09:08:08.702Z,7.80
2022-10-05T09:11:24.417Z,6.55
2022-10-05T09:15:01.483Z,7.80
2022-10-05T09:18:57.508Z,8.07
2022-10-05T09:22:19.533Z,8.77
2022-10-05T09:25:41.226Z,9.48
2022-10-05T09:29:29.447Z,10.23
2022-10-05T09:33:10.469Z,9.68
2022-10-05T09:36:31.902Z,9.43
2022-10-05T09:39:47.432Z,9.02
2022-10-05T09:43:23.713Z,10.45
2022-10-05T09:46:54.907Z,9.32
2022-10-05T09:50:09.576Z,8.38
2022-10-05T09:53:32.248Z,8.40
2022-10-05T09:57:00.423Z,8.23
2022-10-05T10:01:03.875Z,7.40
2022-10-05T10:04:40.508Z,6.68
2022-10-05T10:08:04.769Z,7.68
2022-10-05T10:11:13.741Z,7.55
2022-10-05T10:14:36.391Z,7.28
2022-10-05T10:18:03.550Z,7.20
2022-10-05T10:21:24.869Z,6.95
2022-10-05T10:24:46.098Z,6.55
2022-10-05T10:28:28.036Z,7.18
2022-10-05T10:31:39.769Z,7.15
2022-10-05T10:35:08.268Z,7.20
2022-10-05T10:38:32.136Z,6.85
2022-10-05T10:41:56.254Z,7.82
2022-10-05T10:45:17.196Z,7.57
2022-10-05T10:48:19.754Z,7.05
2022-10-05T10:51:50.444Z,6.87
2022-10-05T10:54:59.404Z,7.30
2022-10-05T10:58:39.984Z,7.15
2022-10-05T11:02:21.357Z,7.62
2022-10-05T11:05:57.063Z,6.78
2022-10-05T11:09:17.621Z,6.82
2022-10-05T11:15:44.453Z,7.45
2022-10-05T11:18:51.569Z,7.82
2022-10-05T11:22:19.217Z,7.95
2022-10-05T11:25:46.621Z,7.90
2022-10-05T11:29:06.821Z,7.62
2022-10-05T11:32:31.727Z,7.82
2022-10-05T11:35:57.832Z,8.18
2022-10-05T11:39:11.483Z,8.48
2022-10-05T11:42:32.685Z,8.70
2022-10-05T11:49:53.889Z,8.82
2022-10-05T11:56:24.328Z,9.27
2022-10-05T11:59:53.726Z,9.90
2022-10-05T12:03:33.804Z,9.93
2022-10-05T12:06:58.872Z,10.05
2022-10-05T12:10:38.980Z,9.25
2022-10-05T12:14:17.874Z,9.32
2022-10-05T12:17:51.524Z,9.30
2022-10-05T12:21:22.959Z,8.43
2022-10-05T12:24:37.171Z,8.63
2022-10-05T12:27:45.744Z,8.50
2022-10-05T12:31:26.952Z,8.63
2022-10-05T12:35:01.642Z,7.90
2022-10-05T12:38:24.893Z,7.35
2022-10-05T12:41:39.148Z,7.12
2022-10-05T12:45:04.458Z,7.15
2022-10-05T12:48:33.621Z,7.53
2022-10-05T12:51:52.126Z,7.75
2022-10-05T12:55:13.157Z,7.68
2022-10-05T12:58:29.025Z,7.57
2022-10-05T13:01:43.924Z,7.50
2022-10-05T13:04:55.903Z,6.78
2022-10-05T13:08:26.959Z,6.40
2022-10-05T13:11:38.478Z,6.20
2022-10-05T13:15:04.966Z,5.78
2022-10-05T13:18:49.823Z,5.70
2022-10-05T13:22:36.172Z,5.15
2022-10-05T13:25:53.267Z,4.60
2022-10-05T13:29:02.937Z,4.40
2022-10-05T13:32:33.480Z,3.65
2022-10-05T13:35:57.533Z,3.00
2022-10-05T13:38:59.936Z,3.42
2022-10-05T13:42:10.407Z,3.30
2022-10-05T13:45:22.956Z,3.53
2022-10-05T13:48:56.977Z,3.90
2022-10-05T13:52:23.390Z,3.60
2022-10-05T13:55:47.546Z,3.72
2022-10-05T13:59:27.937Z,4.03
2022-10-05T14:02:38.492Z,4.10
2022-10-05T14:05:55.872Z,4.20
2022-10-05T14:09:01.473Z,3.87
2022-10-05T14:12:04.233Z,3.47
2022-10-05T14:15:28.648Z,3.78
2022-10-05T14:18:36.338Z,3.78
2022-10-05T14:22:17.458Z,3.95
2022-10-05T14:25:20.471Z,3.95
2022-10-05T14:28:31.379Z,3.95
2022-10-05T14:31:36.935Z,4.10
2022-10-05T14:35:26.627Z,4.18
2022-10-05T14:38:50.361Z,3.80
2022-10-05T14:41:53.081Z,4.00
2022-10-05T14:45:00.835Z,4.57
2022-10-05T14:48:11.481Z,4.22
2022-10-05T14:51:28.315Z,4.70
2022-10-05T14:54:41.241Z,4.50
2022-10-05T14:58:15.670Z,4.43
2022-10-05T15:01:28.236Z,4.78
2022-10-05T15:19:37.943Z,4.12
